createdAt,value
2022-11-29T00:01:23.773Z,75.00
2022-11-29T00:04:26.728Z,74.50
2022-11-29T00:07:29.834Z,69.85
2022-11-29T00:10:35.614Z,59.33
2022-11-29T00:13:39.316Z,80.80
2022-11-29T00:16:42.578Z,75.20
2022-11-29T00:19:45.652Z,64.67
2022-11-29T00:22:48.462Z,65.80
2022-11-29T00:25:51.479Z,73.55
2022-11-29T00:28:54.522Z,70.03
2022-11-29T00:31:57.542Z,76.60
2022-11-29T00:35:02.912Z,72.70
2022-11-29T00:38:08.097Z,65.90
2022-11-29T00:41:12.248Z,96.20
2022-11-29T00:44:19.898Z,75.13
2022-11-29T00:47:23.457Z,68.25
2022-11-29T00:50:26.365Z,76.73
2022-11-29T00:53:29.426Z,76.65
2022-11-29T00:56:32.586Z,71.88
2022-11-29T00:59:36.582Z,109.03
2022-11-29T01:02:39.513Z,100.70
2022-11-29T01:05:43.132Z,89.37
2022-11-29T01:08:46.394Z,96.00
2022-11-29T01:11:50.380Z,95.55
2022-11-29T01:14:53.345Z,95.93
2022-11-29T01:17:56.317Z,59.47
2022-11-29T01:21:14.812Z,82.03
2022-11-29T01:24:17.614Z,72.78
2022-11-29T01:27:20.396Z,86.75
2022-11-29T01:30:23.346Z,75.88
2022-11-29T01:33:26.243Z,70.45
2022-11-29T01:36:29.549Z,85.37
2022-11-29T01:39:32.642Z,79.65
2022-11-29T01:42:35.452Z,79.90
2022-11-29T01:45:38.864Z,69.03
2022-11-29T01:48:41.765Z,76.93
2022-11-29T01:51:53.679Z,71.37
2022-11-29T01:55:00.650Z,71.75
2022-11-29T01:58:04.694Z,74.57
2022-11-29T02:01:07.609Z,68.65
2022-11-29T02:04:11.098Z,75.90
2022-11-29T02:07:14.210Z,85.83
2022-11-29T02:10:17.632Z,74.05
2022-11-29T02:13:45.299Z,69.97
2022-11-29T02:17:10.397Z,74.20
2022-11-29T02:20:31.319Z,82.93
2022-11-29T02:24:13.126Z,64.53
2022-11-29T02:27:55.159Z,54.45
2022-11-29T02:30:58.038Z,61.17
2022-11-29T02:34:06.952Z,54.30
2022-11-29T02:37:21.788Z,81.28
2022-11-29T02:40:27.690Z,61.50
2022-11-29T02:43:59.339Z,69.97
2022-11-29T02:47:25.337Z,75.78
2022-11-29T02:50:57.357Z,61.40
2022-11-29T02:54:16.863Z,54.83
2022-11-29T02:57:38.347Z,68.20
2022-11-29T03:00:49.512Z,61.78
2022-11-29T03:04:10.532Z,44.05
2022-11-29T03:07:35.309Z,56.60
2022-11-29T03:11:03.188Z,59.83
2022-11-29T03:14:24.486Z,64.53
2022-11-29T03:18:01.371Z,62.88
2022-11-29T03:21:18.277Z,50.38
2022-11-29T03:24:51.395Z,51.40
2022-11-29T03:28:29.472Z,65.13
2022-11-29T03:31:57.006Z,54.10
2022-11-29T03:35:18.503Z,56.72
2022-11-29T03:38:35.386Z,48.35
2022-11-29T03:41:40.550Z,62.25
2022-11-29T03:44:53.761Z,58.83
2022-11-29T03:48:12.646Z,57.90
2022-11-29T03:51:22.131Z,45.35
2022-11-29T03:54:32.858Z,54.58
2022-11-29T03:57:38.727Z,52.83
2022-11-29T04:01:16.259Z,48.17
2022-11-29T04:04:34.319Z,49.10
2022-11-29T04:08:02.201Z,51.75
2022-11-29T04:11:23.589Z,49.05
2022-11-29T04:14:58.183Z,50.58
2022-11-29T04:18:16.156Z,54.10
2022-11-29T04:21:49.947Z,55.67
2022-11-29T04:25:30.042Z,62.25
2022-11-29T04:28:51.717Z,53.75
2022-11-29T04:32:16.718Z,54.33
2022-11-29T04:35:49.594Z,49.85
2022-11-29T04:39:01.535Z,56.20
2022-11-29T04:42:49.986Z,65.97
2022-11-29T04:46:31.816Z,58.13
2022-11-29T04:49:54.198Z,56.67
2022-11-29T04:53:02.759Z,62.45
2022-11-29T04:56:36.738Z,63.27
2022-11-29T05:00:02.724Z,45.00
2022-11-29T05:03:20.484Z,65.97
2022-11-29T05:07:04.521Z,69.60
2022-11-29T05:10:22.585Z,42.60
2022-11-29T05:13:29.145Z,61.73
2022-11-29T05:16:45.270Z,56.38
2022-11-29T05:20:16.073Z,62.35
2022-11-29T05:23:57.492Z,70.35
2022-11-29T05:27:35.967Z,67.45
2022-11-29T05:31:17.224Z,67.53
2022-11-29T05:34:38.372Z,68.47
2022-11-29T05:38:02.879Z,68.47
2022-11-29T05:41:37.485Z,76.63
2022-11-29T05:44:46.840Z,57.35
2022-11-29T05:47:57.810Z,59.83
2022-11-29T05:51:10.975Z,60.53
2022-11-29T05:54:13.807Z,57.17
2022-11-29T05:57:53.818Z,54.90
2022-11-29T06:01:19.006Z,56.28
2022-11-29T06:04:41.658Z,60.40
2022-11-29T06:07:54.643Z,66.57
2022-11-29T06:11:20.835Z,58.42
2022-11-29T06:14:48.008Z,62.55
2022-11-29T06:18:23.104Z,59.03
2022-11-29T06:21:29.037Z,61.33
2022-11-29T06:24:50.999Z,49.40
2022-11-29T06:28:09.015Z,57.58
2022-11-29T06:31:11.970Z,52.00
2022-11-29T06:34:22.402Z,62.45
2022-11-29T06:37:40.503Z,53.50
2022-11-29T06:40:43.455Z,62.60
2022-11-29T06:43:46.554Z,52.78
2022-11-29T06:47:05.664Z,47.92
2022-11-29T06:50:26.686Z,49.58
2022-11-29T06:53:51.292Z,61.03
2022-11-29T06:57:17.385Z,51.90
2022-11-29T07:00:27.085Z,67.00
2022-11-29T07:03:41.796Z,47.58
2022-11-29T07:06:44.902Z,40.25
2022-11-29T07:09:53.733Z,44.97
2022-11-29T07:12:57.266Z,47.47
2022-11-29T07:16:13.971Z,41.80
2022-11-29T07:19:24.000Z,43.08
2022-11-29T07:22:59.925Z,49.85
2022-11-29T07:26:22.104Z,43.00
2022-11-29T07:29:55.661Z,45.60
2022-11-29T07:33:16.824Z,46.30
2022-11-29T07:36:23.977Z,44.10
2022-11-29T07:39:53.192Z,54.60
2022-11-29T07:43:19.604Z,48.87
2022-11-29T07:46:37.327Z,44.45
2022-11-29T07:49:40.197Z,42.92
2022-11-29T07:52:47.498Z,49.80
2022-11-29T07:55:55.473Z,41.83
2022-11-29T07:58:59.470Z,50.87
2022-11-29T08:02:08.784Z,48.13
2022-11-29T08:05:15.863Z,39.35
2022-11-29T08:08:22.352Z,44.53
2022-11-29T08:11:26.414Z,48.33
2022-11-29T08:14:33.194Z,52.17
2022-11-29T08:17:38.256Z,38.10
2022-11-29T08:20:42.248Z,48.97
2022-11-29T08:23:46.305Z,53.03
2022-11-29T08:26:49.606Z,53.63
2022-11-29T08:29:53.948Z,62.67
2022-11-29T08:32:58.646Z,40.85
2022-11-29T08:36:11.608Z,47.90
2022-11-29T08:39:14.718Z,43.92
2022-11-29T08:42:17.784Z,41.35
2022-11-29T08:45:20.568Z,39.80
2022-11-29T08:48:23.395Z,51.60
2022-11-29T08:51:26.229Z,46.08
2022-11-29T08:54:29.033Z,51.78
2022-11-29T08:57:41.902Z,61.08
2022-11-29T09:00:47.391Z,34.67
2022-11-29T09:04:05.135Z,41.33
2022-11-29T09:07:08.152Z,41.13
2022-11-29T09:10:12.312Z,51.65
2022-11-29T09:13:15.314Z,37.75
2022-11-29T09:16:20.780Z,39.67
2022-11-29T09:19:24.092Z,43.78
2022-11-29T09:22:27.551Z,43.03
2022-11-29T09:25:30.675Z,36.95
2022-11-29T09:28:34.616Z,44.95
2022-11-29T09:31:38.641Z,32.20
2022-11-29T09:34:42.455Z,39.35
2022-11-29T09:37:45.697Z,39.72
2022-11-29T09:40:57.255Z,35.53
2022-11-29T09:44:17.300Z,38.72
2022-11-29T09:47:33.249Z,37.10
2022-11-29T09:50:43.167Z,40.63
2022-11-29T09:54:40.747Z,44.45
2022-11-29T09:57:44.545Z,38.35
2022-11-29T10:00:54.629Z,34.85
2022-11-29T10:04:19.567Z,45.53
2022-11-29T10:07:27.457Z,43.03
2022-11-29T10:10:41.672Z,31.63
2022-11-29T10:13:53.874Z,33.60
2022-11-29T10:17:34.364Z,33.72
2022-11-29T10:20:48.819Z,35.47
2022-11-29T10:23:56.574Z,34.50
2022-11-29T10:26:59.834Z,35.42
2022-11-29T10:30:03.195Z,32.75
2022-11-29T10:33:18.181Z,31.05
2022-11-29T10:36:31.601Z,28.33
2022-11-29T10:39:57.522Z,30.92
2022-11-29T10:43:01.607Z,28.98
2022-11-29T10:46:06.120Z,31.23
2022-11-29T10:49:20.756Z,33.85
2022-11-29T10:52:24.595Z,31.03
2022-11-29T10:55:31.571Z,28.63
2022-11-29T10:58:36.194Z,37.45
2022-11-29T11:01:43.990Z,29.10
2022-11-29T11:04:48.412Z,37.95
2022-11-29T11:08:18.266Z,38.07
2022-11-29T11:11:33.873Z,33.70
2022-11-29T11:15:00.876Z,32.15
2022-11-29T11:18:07.008Z,35.03
2022-11-29T11:21:15.686Z,33.33
2022-11-29T11:24:25.232Z,26.63
2022-11-29T11:27:35.985Z,30.33
2022-11-29T11:30:39.015Z,27.65
2022-11-29T11:33:46.132Z,27.20
2022-11-29T11:36:49.276Z,26.10
2022-11-29T11:39:58.939Z,28.03
2022-11-29T11:43:36.859Z,26.70
2022-11-29T11:46:56.450Z,26.75
2022-11-29T11:50:02.785Z,28.42
2022-11-29T11:53:17.651Z,25.35
2022-11-29T11:56:22.269Z,26.13
2022-11-29T11:59:28.086Z,26.08
2022-11-29T12:02:41.491Z,27.70
2022-11-29T12:05:48.843Z,26.70
2022-11-29T12:08:58.012Z,29.00
2022-11-29T12:12:07.283Z,32.57
2022-11-29T12:15:35.795Z,31.77
2022-11-29T12:18:51.705Z,31.50
2022-11-29T12:22:02.938Z,30.67
2022-11-29T12:25:14.179Z,32.70
2022-11-29T12:28:20.761Z,34.80
2022-11-29T12:31:43.204Z,32.70
2022-11-29T12:35:08.396Z,38.28
2022-11-29T12:38:32.718Z,33.70
2022-11-29T12:42:17.055Z,34.88
2022-11-29T12:45:29.234Z,32.17
2022-11-29T12:48:56.919Z,34.35
2022-11-29T12:52:09.294Z,36.45
2022-11-29T12:55:49.720Z,32.97
2022-11-29T12:59:15.294Z,36.47
2022-11-29T13:02:41.623Z,36.73
2022-11-29T13:06:22.039Z,33.10
2022-11-29T13:09:43.896Z,37.92
2022-11-29T13:12:55.858Z,35.80
2022-11-29T13:16:01.622Z,36.72
2022-11-29T13:19:18.437Z,39.80
2022-11-29T13:23:14.960Z,41.83
2022-11-29T13:26:18.933Z,40.72
2022-11-29T13:29:22.363Z,36.00
2022-11-29T13:32:37.483Z,37.53
2022-11-29T13:35:51.506Z,42.97
2022-11-29T13:39:06.582Z,43.75
2022-11-29T13:42:27.350Z,41.85
2022-11-29T13:46:09.258Z,40.10
2022-11-29T13:49:41.978Z,42.45
2022-11-29T13:52:47.678Z,40.40
2022-11-29T13:56:01.592Z,46.53
2022-11-29T13:59:14.355Z,37.55
2022-11-29T14:02:30.563Z,42.97
2022-11-29T14:05:38.312Z,44.97
2022-11-29T14:09:17.087Z,46.43
2022-11-29T14:12:31.586Z,41.38
2022-11-29T14:15:34.663Z,45.63
2022-11-29T14:18:37.511Z,47.42
2022-11-29T14:21:58.934Z,52.90
2022-11-29T14:25:49.183Z,49.37
2022-11-29T14:28:44.168Z,47.28
2022-11-29T14:31:49.781Z,42.90
2022-11-29T14:34:57.735Z,45.25
2022-11-29T14:38:15.586Z,57.25
2022-11-29T14:41:27.415Z,50.03
2022-11-29T14:44:32.458Z,46.42
2022-11-29T14:47:39.052Z,59.60
2022-11-29T14:50:42.306Z,58.97
2022-11-29T14:53:47.936Z,54.35
2022-11-29T14:56:50.934Z,57.47
2022-11-29T14:59:54.852Z,52.53
2022-11-29T15:03:16.145Z,44.55
2022-11-29T15:06:30.393Z,54.65
2022-11-29T15:09:35.004Z,51.83
2022-11-29T15:12:38.635Z,54.87
2022-11-29T15:16:13.167Z,58.08
2022-11-29T15:19:49.499Z,58.80
2022-11-29T15:22:55.455Z,44.55
2022-11-29T15:26:01.613Z,62.30
2022-11-29T15:29:19.812Z,58.20
2022-11-29T15:32:25.875Z,61.25
2022-11-29T15:35:29.245Z,55.00
2022-11-29T15:38:42.949Z,50.22
2022-11-29T15:41:45.766Z,57.90
2022-11-29T15:44:49.323Z,66.07
2022-11-29T15:47:52.616Z,62.90
2022-11-29T15:51:01.516Z,58.33
2022-11-29T15:54:13.843Z,57.85
2022-11-29T15:57:22.950Z,55.65
2022-11-29T16:00:28.269Z,48.97
2022-11-29T16:03:34.940Z,51.15
2022-11-29T16:06:42.859Z,48.35
2022-11-29T16:09:50.553Z,48.47
2022-11-29T16:13:04.090Z,51.58
2022-11-29T16:16:20.621Z,61.40
2022-11-29T16:19:37.095Z,52.88
2022-11-29T16:22:40.035Z,59.85
2022-11-29T16:26:41.582Z,61.88
2022-11-29T16:29:46.232Z,54.63
2022-11-29T16:32:54.826Z,58.17
2022-11-29T16:36:29.338Z,62.20
2022-11-29T16:39:35.200Z,72.97
2022-11-29T16:42:38.722Z,63.80
2022-11-29T16:45:42.601Z,77.18
2022-11-29T16:48:45.941Z,55.20
2022-11-29T16:51:55.392Z,74.55
2022-11-29T16:54:58.410Z,75.80
2022-11-29T16:58:04.351Z,71.82
2022-11-29T17:01:17.867Z,74.75
2022-11-29T17:04:25.377Z,57.83
2022-11-29T17:07:35.281Z,71.13
2022-11-29T17:10:38.486Z,63.63
2022-11-29T17:13:41.291Z,72.13
2022-11-29T17:16:44.835Z,65.10
2022-11-29T17:19:47.773Z,64.40
2022-11-29T17:22:50.590Z,60.65
2022-11-29T17:25:57.739Z,66.85
2022-11-29T17:29:01.205Z,63.60
2022-11-29T17:32:04.602Z,65.97
2022-11-29T17:35:08.300Z,57.80
2022-11-29T17:38:11.346Z,53.75
2022-11-29T17:41:22.547Z,56.67
2022-11-29T17:44:25.510Z,52.05
2022-11-29T17:47:28.299Z,66.20
2022-11-29T17:50:31.247Z,56.77
2022-11-29T17:53:35.528Z,58.78
2022-11-29T17:56:38.436Z,62.80
2022-11-29T17:59:41.303Z,59.20
2022-11-29T18:02:44.277Z,57.55
2022-11-29T18:05:47.059Z,47.07
2022-11-29T18:08:52.136Z,49.83
2022-11-29T18:11:55.142Z,58.17
2022-11-29T18:14:58.010Z,63.80
2022-11-29T18:18:00.956Z,59.50
2022-11-29T18:21:05.908Z,61.67
2022-11-29T18:24:09.883Z,67.68
2022-11-29T18:27:12.844Z,72.20
2022-11-29T18:30:16.535Z,63.88
2022-11-29T18:33:20.278Z,68.30
2022-11-29T18:36:26.274Z,65.27
2022-11-29T18:39:30.830Z,62.90
2022-11-29T18:42:33.938Z,73.50
2022-11-29T18:45:38.300Z,63.28
2022-11-29T18:48:44.614Z,57.40
2022-11-29T18:51:49.233Z,68.33
2022-11-29T18:54:52.308Z,56.03
2022-11-29T18:57:55.407Z,66.60
2022-11-29T19:01:29.292Z,59.35
2022-11-29T19:04:32.733Z,61.33
2022-11-29T19:07:35.544Z,65.83
2022-11-29T19:10:38.981Z,66.50
2022-11-29T19:13:42.371Z,61.25
2022-11-29T19:16:47.871Z,63.13
2022-11-29T19:19:50.893Z,63.08
2022-11-29T19:23:00.200Z,61.57
2022-11-29T19:26:09.084Z,58.15
2022-11-29T19:29:15.766Z,61.58
2022-11-29T19:32:18.880Z,61.85
2022-11-29T19:35:21.976Z,56.65
2022-11-29T19:38:25.171Z,59.03
2022-11-29T19:41:34.148Z,56.75
2022-11-29T19:45:08.749Z,61.60
2022-11-29T19:48:00.330Z,62.25
2022-11-29T19:51:04.554Z,58.72
2022-11-29T19:54:09.388Z,55.83
2022-11-29T19:57:12.139Z,60.03
2022-11-29T20:00:16.003Z,54.38
2022-11-29T20:03:19.011Z,52.08
2022-11-29T20:06:22.444Z,57.05
2022-11-29T20:09:28.774Z,55.10
2022-11-29T20:12:32.967Z,66.57
2022-11-29T20:15:35.730Z,61.70
2022-11-29T20:18:48.760Z,68.22
2022-11-29T20:21:54.931Z,65.70
2022-11-29T20:24:58.093Z,69.67
2022-11-29T20:28:04.220Z,72.65
2022-11-29T20:31:09.153Z,70.00
2022-11-29T20:34:14.330Z,64.55
2022-11-29T20:37:44.876Z,63.40
2022-11-29T20:41:06.286Z,65.63
2022-11-29T20:44:16.304Z,60.40
2022-11-29T20:47:22.581Z,67.32
2022-11-29T20:50:28.005Z,73.22
2022-11-29T20:53:31.736Z,70.22
2022-11-29T20:56:34.692Z,63.07
2022-11-29T20:59:37.811Z,67.20
2022-11-29T21:02:40.512Z,74.38
2022-11-29T21:05:43.939Z,69.22
2022-11-29T21:08:46.871Z,73.70
2022-11-29T21:11:50.442Z,72.57
2022-11-29T21:14:53.829Z,69.88
2022-11-29T21:17:57.034Z,80.85
2022-11-29T21:21:07.478Z,68.78
2022-11-29T21:24:28.906Z,78.00
2022-11-29T21:27:33.739Z,77.77
2022-11-29T21:30:37.191Z,74.55
2022-11-29T21:33:40.443Z,76.35
2022-11-29T21:36:44.398Z,83.15
2022-11-29T21:39:49.323Z,74.65
2022-11-29T21:42:52.197Z,77.73
2022-11-29T21:45:55.075Z,76.00
2022-11-29T21:48:57.862Z,85.45
2022-11-29T21:52:01.343Z,80.72
2022-11-29T21:55:04.550Z,75.47
2022-11-29T21:58:07.316Z,82.67
2022-11-29T22:01:14.108Z,78.03
2022-11-29T22:04:17.100Z,71.78
2022-11-29T22:07:20.028Z,71.43
2022-11-29T22:10:22.997Z,70.82
2022-11-29T22:13:26.050Z,75.40
2022-11-29T22:16:30.074Z,82.45
2022-11-29T22:19:36.301Z,79.22
2022-11-29T22:22:39.007Z,72.50
2022-11-29T22:25:41.823Z,77.72
2022-11-29T22:28:44.619Z,71.57
2022-11-29T22:31:50.416Z,65.65
2022-11-29T22:34:53.326Z,76.65
2022-11-29T22:37:56.208Z,76.18
2022-11-29T22:41:04.138Z,73.75
2022-11-29T22:44:07.864Z,87.10
2022-11-29T22:47:12.872Z,75.63
2022-11-29T22:50:15.611Z,80.47
2022-11-29T22:53:18.345Z,85.18
2022-11-29T22:56:23.080Z,81.70
